sensor_id;sensor_type;location;lat;lon;timestamp;P1;durP1;ratioP1;P2;durP2;ratioP2
31126;SDS011;17775;57.948;12.514;2022-12-16T00:00:03;18.50;;;7.20;;
31126;SDS011;17775;57.948;12.514;2022-12-16T00:02:30;18.17;;;7.22;;
31126;SDS011;17775;57.948;12.514;2022-12-16T00:04:57;17.25;;;6.45;;
31126;SDS011;17775;57.948;12.514;2022-12-16T00:07:23;21.83;;;7.93;;
31126;SDS011;17775;57.948;12.514;2022-12-16T00:09:50;20.02;;;8.07;;
31126;SDS011;17775;57.948;12.514;2022-12-16T00:12:16;22.60;;;7.82;;
31126;SDS011;17775;57.948;12.514;2022-12-16T00:14:43;20.55;;;7.25;;
31126;SDS011;17775;57.948;12.514;2022-12-16T00:17:09;17.40;;;7.38;;
31126;SDS011;17775;57.948;12.514;2022-12-16T00:19:36;20.55;;;7.05;;
31126;SDS011;17775;57.948;12.514;2022-12-16T00:22:02;18.75;;;6.93;;
31126;SDS011;17775;57.948;12.514;2022-12-16T00:24:29;19.67;;;6.43;;
31126;SDS011;17775;57.948;12.514;2022-12-16T00:26:56;18.17;;;7.53;;
31126;SDS011;17775;57.948;12.514;2022-12-16T00:29:22;29.38;;;7.68;;
31126;SDS011;17775;57.948;12.514;2022-12-16T00:31:49;22.45;;;7.18;;
31126;SDS011;17775;57.948;12.514;2022-12-16T00:34:16;42.90;;;8.50;;
31126;SDS011;17775;57.948;12.514;2022-12-16T00:36:44;58.10;;;10.80;;
31126;SDS011;17775;57.948;12.514;2022-12-16T00:39:11;63.88;;;11.50;;
31126;SDS011;17775;57.948;12.514;2022-12-16T00:41:37;98.00;;;13.07;;
31126;SDS011;17775;57.948;12.514;2022-12-16T00:44:03;102.45;;;14.65;;
31126;SDS011;17775;57.948;12.514;2022-12-16T00:46:30;92.10;;;12.75;;
31126;SDS011;17775;57.948;12.514;2022-12-16T00:48:56;54.53;;;8.80;;
31126;SDS011;17775;57.948;12.514;2022-12-16T00:51:23;65.85;;;11.35;;
31126;SDS011;17775;57.948;12.514;2022-12-16T00:53:49;21.45;;;8.10;;
31126;SDS011;17775;57.948;12.514;2022-12-16T00:56:16;14.98;;;5.85;;
31126;SDS011;17775;57.948;12.514;2022-12-16T00:58:45;16.50;;;7.00;;
31126;SDS011;17775;57.948;12.514;2022-12-16T01:01:12;17.35;;;5.53;;
31126;SDS011;17775;57.948;12.514;2022-12-16T01:03:39;16.80;;;6.65;;
31126;SDS011;17775;57.948;12.514;2022-12-16T01:06:11;14.10;;;6.22;;
31126;SDS011;17775;57.948;12.514;2022-12-16T01:08:38;18.73;;;7.88;;
31126;SDS011;17775;57.948;12.514;2022-12-16T01:11:05;17.20;;;6.45;;
31126;SDS011;17775;57.948;12.514;2022-12-16T01:13:31;22.40;;;8.75;;
31126;SDS011;17775;57.948;12.514;2022-12-16T01:15:59;23.17;;;8.27;;
31126;SDS011;17775;57.948;12.514;2022-12-16T01:18:26;23.63;;;7.82;;
31126;SDS011;17775;57.948;12.514;2022-12-16T01:20:53;20.90;;;7.97;;
31126;SDS011;17775;57.948;12.514;2022-12-16T01:23:19;21.50;;;7.90;;
31126;SDS011;17775;57.948;12.514;2022-12-16T01:25:51;21.52;;;8.15;;
31126;SDS011;17775;57.948;12.514;2022-12-16T01:31:15;18.17;;;6.72;;
31126;SDS011;17775;57.948;12.514;2022-12-16T01:33:42;16.13;;;7.70;;
31126;SDS011;17775;57.948;12.514;2022-12-16T01:36:09;20.77;;;7.60;;
31126;SDS011;17775;57.948;12.514;2022-12-16T01:38:35;19.10;;;7.18;;
31126;SDS011;17775;57.948;12.514;2022-12-16T01:41:02;20.30;;;8.23;;
31126;SDS011;17775;57.948;12.514;2022-12-16T01:43:30;19.25;;;7.28;;
31126;SDS011;17775;57.948;12.514;2022-12-16T01:46:05;22.00;;;7.03;;
31126;SDS011;17775;57.948;12.514;2022-12-16T01:51:23;17.20;;;6.43;;
31126;SDS011;17775;57.948;12.514;2022-12-16T01:53:53;20.70;;;7.38;;
31126;SDS011;17775;57.948;12.514;2022-12-16T01:56:21;24.88;;;7.18;;
31126;SDS011;17775;57.948;12.514;2022-12-16T01:58:48;19.08;;;7.18;;
31126;SDS011;17775;57.948;12.514;2022-12-16T02:01:15;21.92;;;6.70;;
31126;SDS011;17775;57.948;12.514;2022-12-16T02:03:42;18.10;;;7.32;;
31126;SDS011;17775;57.948;12.514;2022-12-16T02:06:09;18.75;;;7.20;;
31126;SDS011;17775;57.948;12.514;2022-12-16T02:08:35;21.25;;;7.30;;
31126;SDS011;17775;57.948;12.514;2022-12-16T02:16:28;18.10;;;7.60;;
31126;SDS011;17775;57.948;12.514;2022-12-16T02:21:30;22.02;;;7.15;;
31126;SDS011;17775;57.948;12.514;2022-12-16T02:26:55;23.30;;;7.63;;
31126;SDS011;17775;57.948;12.514;2022-12-16T02:40:25;29.95;;;7.82;;
31126;SDS011;17775;57.948;12.514;2022-12-16T02:42:54;28.33;;;8.52;;
31126;SDS011;17775;57.948;12.514;2022-12-16T02:45:27;26.63;;;8.10;;
31126;SDS011;17775;57.948;12.514;2022-12-16T02:47:55;28.55;;;8.55;;
31126;SDS011;17775;57.948;12.514;2022-12-16T02:50:25;25.95;;;8.32;;
31126;SDS011;17775;57.948;12.514;2022-12-16T02:52:55;21.48;;;8.65;;
31126;SDS011;17775;57.948;12.514;2022-12-16T02:55:24;21.90;;;7.40;;
31126;SDS011;17775;57.948;12.514;2022-12-16T03:00:23;16.75;;;7.03;;
31126;SDS011;17775;57.948;12.514;2022-12-16T03:05:53;28.58;;;7.47;;
31126;SDS011;17775;57.948;12.514;2022-12-16T03:08:22;16.48;;;6.15;;
31126;SDS011;17775;57.948;12.514;2022-12-16T03:10:50;18.45;;;6.65;;
31126;SDS011;17775;57.948;12.514;2022-12-16T03:13:20;18.38;;;6.65;;
31126;SDS011;17775;57.948;12.514;2022-12-16T03:15:47;20.73;;;7.00;;
31126;SDS011;17775;57.948;12.514;2022-12-16T03:18:15;18.08;;;7.13;;
31126;SDS011;17775;57.948;12.514;2022-12-16T03:23:09;17.67;;;7.03;;
31126;SDS011;17775;57.948;12.514;2022-12-16T03:25:38;18.17;;;6.40;;
31126;SDS011;17775;57.948;12.514;2022-12-16T03:28:19;17.55;;;6.93;;
31126;SDS011;17775;57.948;12.514;2022-12-16T03:30:53;16.25;;;6.15;;
31126;SDS011;17775;57.948;12.514;2022-12-16T03:33:25;18.05;;;6.55;;
31126;SDS011;17775;57.948;12.514;2022-12-16T03:36:03;17.10;;;6.32;;
31126;SDS011;17775;57.948;12.514;2022-12-16T03:38:32;13.30;;;5.10;;
31126;SDS011;17775;57.948;12.514;2022-12-16T03:41:00;19.52;;;6.30;;
31126;SDS011;17775;57.948;12.514;2022-12-16T03:43:27;24.15;;;7.43;;
31126;SDS011;17775;57.948;12.514;2022-12-16T03:45:57;20.70;;;7.15;;
31126;SDS011;17775;57.948;12.514;2022-12-16T03:48:27;18.23;;;6.97;;
31126;SDS011;17775;57.948;12.514;2022-12-16T03:50:53;16.33;;;6.05;;
31126;SDS011;17775;57.948;12.514;2022-12-16T03:53:20;20.25;;;5.88;;
31126;SDS011;17775;57.948;12.514;2022-12-16T03:58:17;16.92;;;6.07;;
31126;SDS011;17775;57.948;12.514;2022-12-16T04:00:44;15.55;;;6.20;;
31126;SDS011;17775;57.948;12.514;2022-12-16T04:03:10;19.73;;;6.47;;
31126;SDS011;17775;57.948;12.514;2022-12-16T04:05:37;19.88;;;6.28;;
31126;SDS011;17775;57.948;12.514;2022-12-16T04:08:03;15.32;;;5.03;;
31126;SDS011;17775;57.948;12.514;2022-12-16T04:10:30;14.15;;;6.22;;
31126;SDS011;17775;57.948;12.514;2022-12-16T04:13:15;13.48;;;5.80;;
31126;SDS011;17775;57.948;12.514;2022-12-16T04:16:03;14.38;;;5.15;;
31126;SDS011;17775;57.948;12.514;2022-12-16T04:18:49;15.93;;;5.78;;
31126;SDS011;17775;57.948;12.514;2022-12-16T04:21:33;11.90;;;4.25;;
31126;SDS011;17775;57.948;12.514;2022-12-16T04:24:20;12.23;;;4.30;;
31126;SDS011;17775;57.948;12.514;2022-12-16T04:26:49;9.45;;;4.63;;
31126;SDS011;17775;57.948;12.514;2022-12-16T04:29:40;12.93;;;4.90;;
31126;SDS011;17775;57.948;12.514;2022-12-16T04:32:25;18.75;;;7.38;;
31126;SDS011;17775;57.948;12.514;2022-12-16T04:34:52;17.50;;;5.80;;
31126;SDS011;17775;57.948;12.514;2022-12-16T04:37:18;12.10;;;4.75;;
31126;SDS011;17775;57.948;12.514;2022-12-16T04:40:03;18.55;;;5.45;;
31126;SDS011;17775;57.948;12.514;2022-12-16T04:42:48;18.95;;;6.03;;
31126;SDS011;17775;57.948;12.514;2022-12-16T04:45:33;20.40;;;6.10;;
31126;SDS011;17775;57.948;12.514;2022-12-16T04:48:19;11.32;;;5.20;;
31126;SDS011;17775;57.948;12.514;2022-12-16T04:51:11;24.02;;;6.28;;
31126;SDS011;17775;57.948;12.514;2022-12-16T04:53:56;21.40;;;5.60;;
31126;SDS011;17775;57.948;12.514;2022-12-16T04:56:41;39.60;;;7.35;;
31126;SDS011;17775;57.948;12.514;2022-12-16T04:59:36;15.63;;;5.78;;
31126;SDS011;17775;57.948;12.514;2022-12-16T05:02:21;11.32;;;4.70;;
31126;SDS011;17775;57.948;12.514;2022-12-16T05:05:06;16.45;;;5.20;;
31126;SDS011;17775;57.948;12.514;2022-12-16T05:07:51;11.27;;;4.68;;
31126;SDS011;17775;57.948;12.514;2022-12-16T05:10:50;13.52;;;5.07;;
31126;SDS011;17775;57.948;12.514;2022-12-16T05:13:35;15.88;;;4.75;;
31126;SDS011;17775;57.948;12.514;2022-12-16T05:16:20;13.48;;;5.25;;
31126;SDS011;17775;57.948;12.514;2022-12-16T05:19:05;13.27;;;5.45;;
31126;SDS011;17775;57.948;12.514;2022-12-16T05:21:56;14.48;;;5.82;;
31126;SDS011;17775;57.948;12.514;2022-12-16T05:24:41;13.10;;;5.57;;
31126;SDS011;17775;57.948;12.514;2022-12-16T05:27:27;14.80;;;6.50;;
31126;SDS011;17775;57.948;12.514;2022-12-16T05:30:12;14.02;;;5.38;;
31126;SDS011;17775;57.948;12.514;2022-12-16T05:32:59;48.63;;;16.10;;
31126;SDS011;17775;57.948;12.514;2022-12-16T05:35:44;45.45;;;14.10;;
31126;SDS011;17775;57.948;12.514;2022-12-16T05:38:29;39.92;;;15.20;;
31126;SDS011;17775;57.948;12.514;2022-12-16T05:41:13;23.20;;;9.15;;
31126;SDS011;17775;57.948;12.514;2022-12-16T05:43:58;18.83;;;7.78;;
31126;SDS011;17775;57.948;12.514;2022-12-16T05:46:44;25.35;;;9.52;;
31126;SDS011;17775;57.948;12.514;2022-12-16T05:49:29;19.05;;;7.53;;
31126;SDS011;17775;57.948;12.514;2022-12-16T05:52:14;21.90;;;9.70;;
31126;SDS011;17775;57.948;12.514;2022-12-16T05:54:59;19.00;;;9.00;;
31126;SDS011;17775;57.948;12.514;2022-12-16T05:57:51;21.30;;;8.85;;
31126;SDS011;17775;57.948;12.514;2022-12-16T06:00:40;20.75;;;8.05;;
31126;SDS011;17775;57.948;12.514;2022-12-16T06:03:25;15.07;;;6.72;;
31126;SDS011;17775;57.948;12.514;2022-12-16T06:06:10;16.42;;;7.15;;
31126;SDS011;17775;57.948;12.514;2022-12-16T06:08:55;22.83;;;6.93;;
31126;SDS011;17775;57.948;12.514;2022-12-16T06:11:40;18.77;;;7.80;;
31126;SDS011;17775;57.948;12.514;2022-12-16T06:14:25;26.60;;;9.23;;
31126;SDS011;17775;57.948;12.514;2022-12-16T06:17:10;26.95;;;9.45;;
31126;SDS011;17775;57.948;12.514;2022-12-16T06:19:55;33.00;;;9.88;;
31126;SDS011;17775;57.948;12.514;2022-12-16T06:22:40;22.02;;;8.48;;
31126;SDS011;17775;57.948;12.514;2022-12-16T06:25:25;15.30;;;7.05;;
31126;SDS011;17775;57.948;12.514;2022-12-16T06:28:10;15.15;;;7.30;;
31126;SDS011;17775;57.948;12.514;2022-12-16T06:30:55;11.73;;;5.47;;
31126;SDS011;17775;57.948;12.514;2022-12-16T06:33:40;13.23;;;5.35;;
31126;SDS011;17775;57.948;12.514;2022-12-16T06:36:26;16.30;;;6.45;;
31126;SDS011;17775;57.948;12.514;2022-12-16T06:39:11;16.63;;;6.85;;
31126;SDS011;17775;57.948;12.514;2022-12-16T06:41:56;24.33;;;7.95;;
31126;SDS011;17775;57.948;12.514;2022-12-16T06:44:41;21.52;;;8.43;;
31126;SDS011;17775;57.948;12.514;2022-12-16T06:47:26;30.80;;;9.98;;
31126;SDS011;17775;57.948;12.514;2022-12-16T06:50:12;32.58;;;10.90;;
31126;SDS011;17775;57.948;12.514;2022-12-16T06:52:57;35.50;;;12.02;;
31126;SDS011;17775;57.948;12.514;2022-12-16T06:55:42;41.85;;;14.00;;
31126;SDS011;17775;57.948;12.514;2022-12-16T06:58:27;29.75;;;11.93;;
31126;SDS011;17775;57.948;12.514;2022-12-16T07:01:15;33.00;;;12.18;;
31126;SDS011;17775;57.948;12.514;2022-12-16T07:04:00;34.30;;;10.55;;
31126;SDS011;17775;57.948;12.514;2022-12-16T07:06:45;35.45;;;12.50;;
31126;SDS011;17775;57.948;12.514;2022-12-16T07:09:30;34.35;;;12.00;;
31126;SDS011;17775;57.948;12.514;2022-12-16T07:12:15;48.38;;;16.58;;
31126;SDS011;17775;57.948;12.514;2022-12-16T07:15:00;52.10;;;18.92;;
31126;SDS011;17775;57.948;12.514;2022-12-16T07:17:45;56.67;;;18.92;;
31126;SDS011;17775;57.948;12.514;2022-12-16T07:20:30;48.33;;;13.85;;
31126;SDS011;17775;57.948;12.514;2022-12-16T07:23:15;38.47;;;11.88;;
31126;SDS011;17775;57.948;12.514;2022-12-16T07:26:01;42.35;;;11.68;;
31126;SDS011;17775;57.948;12.514;2022-12-16T07:28:46;44.85;;;11.85;;
31126;SDS011;17775;57.948;12.514;2022-12-16T07:31:31;42.15;;;13.50;;
31126;SDS011;17775;57.948;12.514;2022-12-16T07:34:16;31.17;;;11.57;;
31126;SDS011;17775;57.948;12.514;2022-12-16T07:37:08;41.50;;;12.88;;
31126;SDS011;17775;57.948;12.514;2022-12-16T07:39:56;39.45;;;12.27;;
31126;SDS011;17775;57.948;12.514;2022-12-16T07:42:41;37.53;;;11.60;;
31126;SDS011;17775;57.948;12.514;2022-12-16T07:45:26;36.65;;;12.48;;
31126;SDS011;17775;57.948;12.514;2022-12-16T07:48:11;30.45;;;9.82;;
31126;SDS011;17775;57.948;12.514;2022-12-16T07:50:56;27.95;;;11.65;;
31126;SDS011;17775;57.948;12.514;2022-12-16T07:53:42;35.20;;;12.15;;
31126;SDS011;17775;57.948;12.514;2022-12-16T07:56:27;35.35;;;10.70;;
31126;SDS011;17775;57.948;12.514;2022-12-16T07:59:12;37.70;;;12.60;;
31126;SDS011;17775;57.948;12.514;2022-12-16T08:01:57;39.03;;;12.10;;
31126;SDS011;17775;57.948;12.514;2022-12-16T08:04:42;43.33;;;12.05;;
31126;SDS011;17775;57.948;12.514;2022-12-16T08:07:27;45.80;;;12.30;;
31126;SDS011;17775;57.948;12.514;2022-12-16T08:10:12;39.22;;;13.45;;
31126;SDS011;17775;57.948;12.514;2022-12-16T08:13:00;40.45;;;13.02;;
31126;SDS011;17775;57.948;12.514;2022-12-16T08:15:51;29.70;;;10.73;;
31126;SDS011;17775;57.948;12.514;2022-12-16T08:18:36;28.15;;;9.50;;
31126;SDS011;17775;57.948;12.514;2022-12-16T08:21:21;32.35;;;9.05;;
31126;SDS011;17775;57.948;12.514;2022-12-16T08:24:06;26.08;;;9.10;;
31126;SDS011;17775;57.948;12.514;2022-12-16T08:26:51;32.35;;;9.98;;
31126;SDS011;17775;57.948;12.514;2022-12-16T08:29:39;21.88;;;8.15;;
31126;SDS011;17775;57.948;12.514;2022-12-16T08:32:24;35.47;;;9.18;;
31126;SDS011;17775;57.948;12.514;2022-12-16T08:35:09;22.15;;;8.38;;
31126;SDS011;17775;57.948;12.514;2022-12-16T08:37:54;28.85;;;10.27;;
31126;SDS011;17775;57.948;12.514;2022-12-16T08:40:40;24.70;;;9.15;;
31126;SDS011;17775;57.948;12.514;2022-12-16T08:43:25;24.98;;;9.40;;
31126;SDS011;17775;57.948;12.514;2022-12-16T08:46:10;29.23;;;9.30;;
31126;SDS011;17775;57.948;12.514;2022-12-16T08:48:56;26.65;;;8.18;;
31126;SDS011;17775;57.948;12.514;2022-12-16T08:51:41;21.45;;;7.78;;
31126;SDS011;17775;57.948;12.514;2022-12-16T08:54:26;25.05;;;8.23;;
31126;SDS011;17775;57.948;12.514;2022-12-16T08:57:11;27.67;;;8.55;;
31126;SDS011;17775;57.948;12.514;2022-12-16T08:59:56;21.60;;;7.82;;
31126;SDS011;17775;57.948;12.514;2022-12-16T09:02:41;26.60;;;8.23;;
31126;SDS011;17775;57.948;12.514;2022-12-16T09:05:27;25.83;;;8.32;;
31126;SDS011;17775;57.948;12.514;2022-12-16T09:08:12;34.90;;;10.80;;
31126;SDS011;17775;57.948;12.514;2022-12-16T09:11:00;28.90;;;9.40;;
31126;SDS011;17775;57.948;12.514;2022-12-16T09:13:45;24.83;;;8.57;;
31126;SDS011;17775;57.948;12.514;2022-12-16T09:16:30;32.70;;;10.27;;
31126;SDS011;17775;57.948;12.514;2022-12-16T09:19:15;27.42;;;9.95;;
31126;SDS011;17775;57.948;12.514;2022-12-16T09:22:00;28.58;;;8.60;;
31126;SDS011;17775;57.948;12.514;2022-12-16T09:24:45;25.92;;;8.77;;
31126;SDS011;17775;57.948;12.514;2022-12-16T09:27:30;28.80;;;9.48;;
31126;SDS011;17775;57.948;12.514;2022-12-16T09:30:16;60.08;;;13.05;;
31126;SDS011;17775;57.948;12.514;2022-12-16T09:33:01;33.45;;;12.02;;
31126;SDS011;17775;57.948;12.514;2022-12-16T09:35:46;28.70;;;11.10;;
31126;SDS011;17775;57.948;12.514;2022-12-16T09:38:31;39.75;;;13.25;;
31126;SDS011;17775;57.948;12.514;2022-12-16T09:44:15;34.75;;;13.88;;
31126;SDS011;17775;57.948;12.514;2022-12-16T09:49:58;31.38;;;11.90;;
31126;SDS011;17775;57.948;12.514;2022-12-16T09:52:49;36.60;;;13.90;;
31126;SDS011;17775;57.948;12.514;2022-12-16T09:55:37;39.38;;;15.20;;
31126;SDS011;17775;57.948;12.514;2022-12-16T09:58:23;50.10;;;16.85;;
31126;SDS011;17775;57.948;12.514;2022-12-16T10:01:10;41.58;;;15.77;;
31126;SDS011;17775;57.948;12.514;2022-12-16T10:03:56;32.58;;;13.43;;
31126;SDS011;17775;57.948;12.514;2022-12-16T10:06:48;35.30;;;12.38;;
31126;SDS011;17775;57.948;12.514;2022-12-16T10:18:04;12.48;;;5.75;;
31126;SDS011;17775;57.948;12.514;2022-12-16T10:20:56;19.50;;;7.70;;
31126;SDS011;17775;57.948;12.514;2022-12-16T10:26:39;18.23;;;6.78;;
31126;SDS011;17775;57.948;12.514;2022-12-16T10:29:27;13.20;;;5.95;;
31126;SDS011;17775;57.948;12.514;2022-12-16T10:32:18;14.38;;;6.03;;
31126;SDS011;17775;57.948;12.514;2022-12-16T10:35:22;11.98;;;6.40;;
31126;SDS011;17775;57.948;12.514;2022-12-16T10:38:12;11.93;;;6.03;;
31126;SDS011;17775;57.948;12.514;2022-12-16T10:40:58;24.20;;;9.45;;
31126;SDS011;17775;57.948;12.514;2022-12-16T10:43:45;23.80;;;9.60;;
31126;SDS011;17775;57.948;12.514;2022-12-16T10:46:32;23.55;;;8.75;;
31126;SDS011;17775;57.948;12.514;2022-12-16T10:49:19;22.17;;;8.68;;
31126;SDS011;17775;57.948;12.514;2022-12-16T10:52:04;18.98;;;8.07;;
31126;SDS011;17775;57.948;12.514;2022-12-16T10:54:55;14.90;;;7.00;;
31126;SDS011;17775;57.948;12.514;2022-12-16T10:57:47;14.00;;;5.78;;
31126;SDS011;17775;57.948;12.514;2022-12-16T11:00:42;12.20;;;6.05;;
31126;SDS011;17775;57.948;12.514;2022-12-16T11:03:30;13.95;;;5.78;;
31126;SDS011;17775;57.948;12.514;2022-12-16T11:06:16;14.93;;;5.88;;
31126;SDS011;17775;57.948;12.514;2022-12-16T11:09:19;13.45;;;6.60;;
31126;SDS011;17775;57.948;12.514;2022-12-16T11:15:07;9.95;;;4.45;;
31126;SDS011;17775;57.948;12.514;2022-12-16T11:18:11;7.88;;;3.85;;
31126;SDS011;17775;57.948;12.514;2022-12-16T11:26:58;14.75;;;5.78;;
31126;SDS011;17775;57.948;12.514;2022-12-16T11:29:56;12.00;;;5.10;;
31126;SDS011;17775;57.948;12.514;2022-12-16T11:32:43;9.70;;;5.55;;
31126;SDS011;17775;57.948;12.514;2022-12-16T11:35:29;12.52;;;5.00;;
31126;SDS011;17775;57.948;12.514;2022-12-16T11:38:23;11.32;;;6.97;;
31126;SDS011;17775;57.948;12.514;2022-12-16T11:41:14;15.00;;;7.78;;
31126;SDS011;17775;57.948;12.514;2022-12-16T11:44:00;13.82;;;5.45;;
31126;SDS011;17775;57.948;12.514;2022-12-16T11:46:46;12.07;;;4.97;;
31126;SDS011;17775;57.948;12.514;2022-12-16T11:49:31;10.07;;;4.38;;
31126;SDS011;17775;57.948;12.514;2022-12-16T11:52:17;11.05;;;5.03;;
31126;SDS011;17775;57.948;12.514;2022-12-16T11:55:20;11.68;;;5.00;;
31126;SDS011;17775;57.948;12.514;2022-12-16T11:58:30;9.10;;;4.13;;
31126;SDS011;17775;57.948;12.514;2022-12-16T12:01:31;9.45;;;4.82;;
31126;SDS011;17775;57.948;12.514;2022-12-16T12:04:20;14.65;;;5.40;;
31126;SDS011;17775;57.948;12.514;2022-12-16T12:10:29;9.93;;;4.13;;
31126;SDS011;17775;57.948;12.514;2022-12-16T12:13:25;10.40;;;5.25;;
31126;SDS011;17775;57.948;12.514;2022-12-16T12:22:42;12.02;;;5.65;;
31126;SDS011;17775;57.948;12.514;2022-12-16T12:25:47;9.27;;;4.90;;
31126;SDS011;17775;57.948;12.514;2022-12-16T12:28:54;20.08;;;9.50;;
31126;SDS011;17775;57.948;12.514;2022-12-16T12:40:21;13.20;;;6.82;;
31126;SDS011;17775;57.948;12.514;2022-12-16T12:43:11;14.35;;;6.97;;
31126;SDS011;17775;57.948;12.514;2022-12-16T12:51:47;20.40;;;10.20;;
31126;SDS011;17775;57.948;12.514;2022-12-16T12:54:43;14.88;;;6.68;;
31126;SDS011;17775;57.948;12.514;2022-12-16T12:57:28;22.13;;;10.50;;
31126;SDS011;17775;57.948;12.514;2022-12-16T13:05:50;15.38;;;7.18;;
31126;SDS011;17775;57.948;12.514;2022-12-16T13:11:28;14.35;;;6.47;;
31126;SDS011;17775;57.948;12.514;2022-12-16T13:17:14;14.10;;;6.00;;
31126;SDS011;17775;57.948;12.514;2022-12-16T13:19:59;17.98;;;8.25;;
31126;SDS011;17775;57.948;12.514;2022-12-16T13:22:45;17.08;;;7.90;;
31126;SDS011;17775;57.948;12.514;2022-12-16T13:28:21;19.33;;;9.45;;
31126;SDS011;17775;57.948;12.514;2022-12-16T13:31:07;17.50;;;7.68;;
31126;SDS011;17775;57.948;12.514;2022-12-16T13:33:53;11.63;;;5.55;;
31126;SDS011;17775;57.948;12.514;2022-12-16T13:36:39;9.57;;;4.78;;
31126;SDS011;17775;57.948;12.514;2022-12-16T13:39:25;14.10;;;6.47;;
31126;SDS011;17775;57.948;12.514;2022-12-16T13:48:01;13.45;;;7.07;;
31126;SDS011;17775;57.948;12.514;2022-12-16T13:50:47;17.20;;;6.72;;
31126;SDS011;17775;57.948;12.514;2022-12-16T13:53:53;16.42;;;7.82;;
31126;SDS011;17775;57.948;12.514;2022-12-16T13:56:47;16.13;;;7.35;;
31126;SDS011;17775;57.948;12.514;2022-12-16T13:59:35;13.52;;;6.68;;
31126;SDS011;17775;57.948;12.514;2022-12-16T14:05:41;15.18;;;6.63;;
31126;SDS011;17775;57.948;12.514;2022-12-16T14:08:18;30.83;;;9.73;;
31126;SDS011;17775;57.948;12.514;2022-12-16T14:11:04;16.85;;;7.53;;
31126;SDS011;17775;57.948;12.514;2022-12-16T14:13:59;14.05;;;6.35;;
31126;SDS011;17775;57.948;12.514;2022-12-16T14:16:57;21.02;;;8.88;;
31126;SDS011;17775;57.948;12.514;2022-12-16T14:23:00;21.55;;;8.93;;
31126;SDS011;17775;57.948;12.514;2022-12-16T14:26:10;16.85;;;7.85;;
31126;SDS011;17775;57.948;12.514;2022-12-16T14:28:56;12.07;;;5.93;;
31126;SDS011;17775;57.948;12.514;2022-12-16T14:31:42;14.02;;;6.60;;
31126;SDS011;17775;57.948;12.514;2022-12-16T14:34:31;15.52;;;6.35;;
31126;SDS011;17775;57.948;12.514;2022-12-16T14:37:21;14.30;;;5.53;;
31126;SDS011;17775;57.948;12.514;2022-12-16T14:43:12;12.77;;;5.88;;
31126;SDS011;17775;57.948;12.514;2022-12-16T14:45:58;10.13;;;5.47;;
31126;SDS011;17775;57.948;12.514;2022-12-16T14:48:46;12.57;;;5.78;;
31126;SDS011;17775;57.948;12.514;2022-12-16T14:51:36;16.05;;;5.95;;
31126;SDS011;17775;57.948;12.514;2022-12-16T14:54:41;10.20;;;4.55;;
31126;SDS011;17775;57.948;12.514;2022-12-16T14:57:27;11.52;;;5.25;;
31126;SDS011;17775;57.948;12.514;2022-12-16T15:00:22;13.10;;;5.55;;
31126;SDS011;17775;57.948;12.514;2022-12-16T15:03:18;11.80;;;5.15;;
31126;SDS011;17775;57.948;12.514;2022-12-16T15:06:06;12.30;;;5.22;;
31126;SDS011;17775;57.948;12.514;2022-12-16T15:08:55;11.80;;;5.10;;
31126;SDS011;17775;57.948;12.514;2022-12-16T15:11:40;15.25;;;5.78;;
31126;SDS011;17775;57.948;12.514;2022-12-16T15:14:31;12.27;;;5.63;;
31126;SDS011;17775;57.948;12.514;2022-12-16T15:17:17;11.67;;;5.60;;
31126;SDS011;17775;57.948;12.514;2022-12-16T15:20:03;16.80;;;7.15;;
31126;SDS011;17775;57.948;12.514;2022-12-16T15:22:49;12.90;;;5.82;;
31126;SDS011;17775;57.948;12.514;2022-12-16T15:25:34;14.25;;;6.18;;
31126;SDS011;17775;57.948;12.514;2022-12-16T15:28:26;14.48;;;6.72;;
31126;SDS011;17775;57.948;12.514;2022-12-16T15:31:24;12.27;;;5.47;;
31126;SDS011;17775;57.948;12.514;2022-12-16T15:34:16;15.80;;;6.28;;
31126;SDS011;17775;57.948;12.514;2022-12-16T15:37:01;14.52;;;6.80;;
31126;SDS011;17775;57.948;12.514;2022-12-16T15:39:47;15.73;;;7.03;;
31126;SDS011;17775;57.948;12.514;2022-12-16T15:42:32;14.20;;;6.63;;
31126;SDS011;17775;57.948;12.514;2022-12-16T15:45:19;14.30;;;5.75;;
31126;SDS011;17775;57.948;12.514;2022-12-16T15:48:10;13.32;;;6.78;;
31126;SDS011;17775;57.948;12.514;2022-12-16T15:50:55;15.77;;;5.93;;
31126;SDS011;17775;57.948;12.514;2022-12-16T15:53:59;14.38;;;5.70;;
31126;SDS011;17775;57.948;12.514;2022-12-16T15:56:52;12.95;;;5.75;;
31126;SDS011;17775;57.948;12.514;2022-12-16T15:59:37;12.23;;;5.03;;
31126;SDS011;17775;57.948;12.514;2022-12-16T16:02:43;10.55;;;4.38;;
31126;SDS011;17775;57.948;12.514;2022-12-16T16:05:30;13.02;;;4.95;;
31126;SDS011;17775;57.948;12.514;2022-12-16T16:08:15;14.13;;;5.75;;
31126;SDS011;17775;57.948;12.514;2022-12-16T16:11:00;21.00;;;7.65;;
31126;SDS011;17775;57.948;12.514;2022-12-16T16:13:48;19.80;;;7.35;;
31126;SDS011;17775;57.948;12.514;2022-12-16T16:16:39;15.85;;;7.00;;
31126;SDS011;17775;57.948;12.514;2022-12-16T16:19:25;20.40;;;7.22;;
31126;SDS011;17775;57.948;12.514;2022-12-16T16:22:11;13.15;;;6.03;;
31126;SDS011;17775;57.948;12.514;2022-12-16T16:24:57;12.27;;;5.53;;
31126;SDS011;17775;57.948;12.514;2022-12-16T16:27:42;10.75;;;5.15;;
31126;SDS011;17775;57.948;12.514;2022-12-16T16:30:27;14.57;;;6.82;;
31126;SDS011;17775;57.948;12.514;2022-12-16T16:33:12;18.20;;;7.93;;
31126;SDS011;17775;57.948;12.514;2022-12-16T16:35:58;22.48;;;9.18;;
31126;SDS011;17775;57.948;12.514;2022-12-16T16:38:43;22.67;;;11.40;;
31126;SDS011;17775;57.948;12.514;2022-12-16T16:41:28;22.08;;;10.10;;
31126;SDS011;17775;57.948;12.514;2022-12-16T16:44:13;16.27;;;6.55;;
31126;SDS011;17775;57.948;12.514;2022-12-16T16:46:58;12.95;;;5.45;;
31126;SDS011;17775;57.948;12.514;2022-12-16T16:49:46;15.77;;;7.60;;
31126;SDS011;17775;57.948;12.514;2022-12-16T16:52:31;11.88;;;5.30;;
31126;SDS011;17775;57.948;12.514;2022-12-16T16:55:19;14.45;;;5.78;;
31126;SDS011;17775;57.948;12.514;2022-12-16T16:58:05;14.55;;;5.97;;
31126;SDS011;17775;57.948;12.514;2022-12-16T17:00:51;12.57;;;5.55;;
31126;SDS011;17775;57.948;12.514;2022-12-16T17:03:36;14.32;;;5.85;;
31126;SDS011;17775;57.948;12.514;2022-12-16T17:06:21;11.63;;;5.00;;
31126;SDS011;17775;57.948;12.514;2022-12-16T17:09:07;10.98;;;5.15;;
31126;SDS011;17775;57.948;12.514;2022-12-16T17:11:52;14.48;;;6.13;;
31126;SDS011;17775;57.948;12.514;2022-12-16T17:14:36;22.48;;;8.25;;
31126;SDS011;17775;57.948;12.514;2022-12-16T17:17:21;17.10;;;5.85;;
31126;SDS011;17775;57.948;12.514;2022-12-16T17:20:13;16.60;;;7.15;;
31126;SDS011;17775;57.948;12.514;2022-12-16T17:23:01;11.35;;;5.70;;
31126;SDS011;17775;57.948;12.514;2022-12-16T17:25:46;15.07;;;5.80;;
31126;SDS011;17775;57.948;12.514;2022-12-16T17:28:31;16.83;;;7.53;;
31126;SDS011;17775;57.948;12.514;2022-12-16T17:31:16;13.70;;;6.80;;
31126;SDS011;17775;57.948;12.514;2022-12-16T17:34:01;19.75;;;8.13;;
31126;SDS011;17775;57.948;12.514;2022-12-16T17:36:46;13.52;;;5.90;;
31126;SDS011;17775;57.948;12.514;2022-12-16T17:39:33;13.18;;;5.45;;
31126;SDS011;17775;57.948;12.514;2022-12-16T17:42:18;17.23;;;6.40;;
31126;SDS011;17775;57.948;12.514;2022-12-16T17:45:20;16.98;;;7.53;;